Yaounde, Cameroon

10:08 AM WAT on December 26, 2014 (GMT +0100)
Nsimalen | Change Station
CLOSE
Current Station
Airport
Location: Yaounde,
Elevation: 2493 ft
Nearby Weather Stations

Elev 2493 ft 3.83 °N, 11.52 °E | Updated 8 minutes ago

Haze
Haze
75 °F
Feels Like 75 °F
N
6
Wind Variable Wind from West

Today
High -- | Low -- °F
--% Chance of Precip.
Yesterday
High -- | Low -- °F
Precip. -- in
6:17 AM 6:11 PM
Waxing Crescent, 24% visible
Pressure 30.04 in
Visibility 2.8 miles
Clouds Few 300 ft
Mostly Cloudy 600 ft
Dew Point 68 °F
Humidity 78%
Rainfall 0.00 in
Snow Depth Not available.
UV 4 out of 12
Pollen Not available.
Air Quality Not available.
Flu Activity Not available.
METAR FKYS 260900Z 28005KT 250V330 4500 HZ FEW003 BKN006 24/20 Q1017 BECMG 6000 NSW

More Conditions Fewer Conditions

Pressure 30.04 in
Visibility 2.8 miles
Clouds Few 300 ft
Mostly Cloudy 600 ft
Dew Point 68 °F
Humidity 78%
Rainfall 0.00 in
Snow Depth Not available.
UV 4 out of 12
Pollen Not available.
Air Quality Not available.
Flu Activity Not available.
METAR FKYS 260900Z 28005KT 250V330 4500 HZ FEW003 BKN006 24/20 Q1017 BECMG 6000 NSW

More Conditions Fewer Conditions

10-Day Weather Forecast

Almanac

Astronomy

Dec. 26, 2014 Rise Set
Actual Time
Civil Twilight
Nautical Twilight
Astronomical Twilight
Moon
Length of Visible Light
Length of Day
Tomorrow will be .
, % of the Moon is Illuminated

Today's Extremes

Country Highs Country Lows

Community

WunderPhotos

Upload Photos

1,780,568 photos uploaded!

WunderBlogs® & News

Nearby

Air Quality

  Air Quality AQ Index Pollutant
Not available.

Snow Depth

Station Depth Elevation

Earthquake Activity

City Distance Mag. Time & Date
Minimum magnitude displayed is 2.5.

Coastal Water Temperatures

Place Temperature

Nearby Weather Stations